Time;durP1;ratioP1;P1;durP2;ratioP2;P2;SDS_P1;SDS_P2;PMS_P1;PMS_P2;Temp;Humidity;BMP_temperature;BMP_pressure;BME280_temperature;BME280_humidity;BME280_pressure;Samples;Min_cycle;Max_cycle;Signal;HPM_P1;HPM_P2
2022/04/27 00:00:24;;;;;;;8.20;7.40;;;;;;;13.72;58.34;97732.88;5072979;28;20420;-70
2022/04/27 00:02:49;;;;;;;9.60;7.00;;;;;;;13.65;57.95;97730.84;5072088;28;20231;-70
2022/04/27 00:05:15;;;;;;;7.50;6.53;;;;;;;13.59;58.44;97728.88;5072879;28;20460;-70
2022/04/27 00:07:40;;;;;;;7.03;6.33;;;;;;;13.66;59.01;97735.13;5071559;28;20199;-70
2022/04/27 00:10:06;;;;;;;7.50;6.80;;;;;;;13.71;58.65;97739.13;5070160;28;20205;-70
2022/04/27 00:12:36;;;;;;;7.23;6.53;;;;;;;13.63;58.33;97730.19;5071507;28;20680;-69
2022/04/27 00:15:02;;;;;;;9.03;8.13;;;;;;;13.57;58.26;97733.47;5071464;28;20512;-69
2022/04/27 00:17:28;;;;;;;9.97;8.87;;;;;;;13.67;57.82;97733.34;5071519;28;20489;-69
2022/04/27 00:19:53;;;;;;;8.73;7.50;;;;;;;13.59;57.95;97734.13;5068403;28;20433;-69
2022/04/27 00:22:19;;;;;;;9.00;7.40;;;;;;;13.58;58.58;97726.38;5071353;28;20528;-69
2022/04/27 00:24:45;;;;;;;9.50;8.53;;;;;;;13.64;58.27;97733.66;5071382;28;20178;-69
2022/04/27 00:27:10;;;;;;;8.83;7.70;;;;;;;13.54;57.88;97728.50;5071682;28;20420;-70
2022/04/27 00:29:36;;;;;;;8.97;8.07;;;;;;;13.51;58.60;97736.72;5071295;28;20186;-70
2022/04/27 00:32:01;;;;;;;10.20;9.00;;;;;;;13.53;58.72;97729.50;5071756;28;20708;-70
2022/04/27 00:34:27;;;;;;;9.63;8.63;;;;;;;13.62;58.42;97722.44;5070574;28;20200;-71
2022/04/27 00:36:52;;;;;;;9.27;8.37;;;;;;;13.61;57.81;97726.88;5072187;28;20190;-71
2022/04/27 00:39:18;;;;;;;11.33;9.07;;;;;;;13.59;58.44;97728.88;5071337;28;20228;-70
2022/04/27 00:41:59;;;;;;;10.97;9.57;;;;;;;13.56;58.04;97730.97;5071110;28;20182;-69
2022/04/27 00:44:27;;;;;;;9.40;8.33;;;;;;;13.47;58.05;97736.22;5069134;28;20657;-72
2022/04/27 00:46:53;;;;;;;8.93;8.03;;;;;;;13.54;58.44;97727.69;5071015;28;20532;-71
2022/04/27 00:49:18;;;;;;;12.17;9.67;;;;;;;13.57;58.28;97728.19;5067898;28;20540;-70
2022/04/27 00:51:44;;;;;;;12.80;11.03;;;;;;;13.57;58.27;97730.00;5071252;28;20221;-70
2022/04/27 00:54:09;;;;;;;18.10;15.00;;;;;;;13.55;58.16;97726.69;5070090;28;20190;-70
2022/04/27 00:56:37;;;;;;;20.80;16.83;;;;;;;13.52;57.99;97741.00;5070942;28;20534;-70
2022/04/27 00:59:02;;;;;;;17.00;13.93;;;;;;;13.55;58.14;97732.78;5070450;28;20217;-70
2022/04/27 01:01:28;;;;;;;14.70;12.63;;;;;;;13.53;57.88;97737.38;5070710;28;20491;-70
2022/04/27 01:03:54;;;;;;;14.07;12.13;;;;;;;13.59;58.04;97743.84;5072062;28;20214;-70
2022/04/27 01:06:21;;;;;;;13.10;11.00;;;;;;;13.58;57.45;97745.66;5069847;28;20286;-70
2022/04/27 01:08:46;;;;;;;13.43;11.40;;;;;;;13.58;58.47;97744.81;5070142;28;20236;-70
2022/04/27 01:11:12;;;;;;;12.13;10.83;;;;;;;13.53;58.58;97740.03;5071100;28;20495;-70
2022/04/27 01:13:38;;;;;;;14.20;12.10;;;;;;;13.41;58.93;97749.19;5052838;28;20174;-70
2022/04/27 01:16:05;;;;;;;15.70;13.57;;;;;;;13.42;57.63;97748.19;5070154;28;20830;-71
2022/04/27 01:18:30;;;;;;;16.60;13.53;;;;;;;13.43;57.59;97755.13;5052349;28;20567;-70
2022/04/27 01:20:56;;;;;;;17.47;15.10;;;;;;;13.50;57.38;97753.50;5066617;28;20444;-71
2022/04/27 01:23:22;;;;;;;20.20;14.73;;;;;;;13.52;57.48;97755.00;5069485;28;20190;-71
2022/04/27 01:25:54;;;;;;;16.70;14.33;;;;;;;13.58;57.53;97760.63;5070296;28;20449;-70
2022/04/27 01:28:23;;;;;;;16.30;14.10;;;;;;;13.55;57.89;97753.03;5070092;28;20202;-69
2022/04/27 01:31:02;;;;;;;16.27;14.23;;;;;;;13.53;57.84;97761.09;5069274;28;20486;-70
2022/04/27 01:33:34;;;;;;;19.00;15.07;;;;;;;13.57;57.90;97761.59;5070784;28;20776;-70
2022/04/27 01:36:03;;;;;;;17.17;14.90;;;;;;;13.53;57.96;97758.47;5068447;28;20949;-69
2022/04/27 01:38:42;;;;;;;16.17;14.47;;;;;;;13.28;58.51;97752.22;5070278;28;20448;-70
2022/04/27 01:41:08;;;;;;;22.10;12.53;;;;;;;13.32;59.35;97758.81;5070575;28;20455;-70
2022/04/27 01:43:34;;;;;;;15.57;11.83;;;;;;;13.30;59.55;97753.72;5070255;28;20810;-70
2022/04/27 01:46:00;;;;;;;17.47;14.20;;;;;;;13.32;59.48;97748.28;5069404;28;20704;-70
2022/04/27 01:48:26;;;;;;;17.53;14.57;;;;;;;13.34;59.13;97754.22;5071001;28;20483;-70
2022/04/27 01:50:52;;;;;;;16.63;13.33;;;;;;;13.47;58.86;97754.66;5067317;28;20178;-70
2022/04/27 01:56:03;;;;;;;17.83;14.30;;;;;;;13.58;58.69;97761.44;5064993;28;20171;-70
2022/04/27 01:58:28;;;;;;;17.37;15.00;;;;;;;13.56;58.47;97760.78;5069084;28;21053;-70
2022/04/27 02:00:54;;;;;;;19.03;14.90;;;;;;;13.63;58.46;97758.34;5072061;28;20851;-69
2022/04/27 02:03:20;;;;;;;21.30;16.67;;;;;;;13.56;58.53;97759.94;5070813;28;20186;-70
2022/04/27 02:05:46;;;;;;;18.43;15.90;;;;;;;13.55;58.91;97759.13;5070059;28;20194;-71
2022/04/27 02:08:11;;;;;;;19.30;15.77;;;;;;;13.60;58.75;97759.50;5070246;28;20821;-70
2022/04/27 02:10:37;;;;;;;19.60;16.60;;;;;;;13.61;58.67;97747.94;5069641;28;20206;-68
2022/04/27 02:13:04;;;;;;;20.50;16.03;;;;;;;13.65;58.82;97759.81;5070288;28;20186;-70
2022/04/27 02:15:30;;;;;;;20.40;16.97;;;;;;;13.63;58.49;97761.78;5070218;28;20416;-70
2022/04/27 02:17:56;;;;;;;22.50;16.20;;;;;;;13.63;58.62;97764.41;5073061;28;20787;-70
2022/04/27 02:20:23;;;;;;;19.40;16.00;;;;;;;13.65;57.99;97766.91;5070219;28;20178;-70
2022/04/27 02:22:48;;;;;;;22.77;17.10;;;;;;;13.67;58.32;97771.03;5073597;28;20186;-70
2022/04/27 02:25:14;;;;;;;20.80;16.10;;;;;;;13.69;58.00;97776.13;5073635;28;20448;-70
2022/04/27 02:27:40;;;;;;;20.37;17.10;;;;;;;13.71;58.32;97773.34;5073600;28;20620;-70
2022/04/27 02:30:07;;;;;;;21.10;16.83;;;;;;;13.72;58.75;97772.38;5073308;28;20178;-70
2022/04/27 02:32:32;;;;;;;23.07;17.53;;;;;;;13.74;58.30;97771.22;5073829;28;20428;-70
2022/04/27 02:34:58;;;;;;;22.13;17.20;;;;;;;13.77;58.21;97785.88;5073726;28;20421;-71
2022/04/27 02:37:23;;;;;;;23.20;19.10;;;;;;;13.73;58.12;97774.84;5072939;28;20275;-71
2022/04/27 02:39:48;;;;;;;23.07;17.87;;;;;;;13.71;58.35;97776.81;5073407;28;20575;-70
2022/04/27 02:42:14;;;;;;;22.60;18.20;;;;;;;13.69;58.84;97781.41;5073910;28;20239;-71
2022/04/27 02:44:40;;;;;;;25.50;18.73;;;;;;;13.77;58.29;97772.72;5073000;28;20193;-70
2022/04/27 02:47:05;;;;;;;22.50;17.30;;;;;;;13.76;58.44;97776.31;5073038;28;20175;-69
2022/04/27 02:52:15;;;;;;;22.50;18.00;;;;;;;13.70;58.63;97776.97;5066196;28;20190;-69
2022/04/27 02:54:41;;;;;;;19.03;15.47;;;;;;;13.77;58.19;97780.63;5072957;28;20424;-70
2022/04/27 02:57:06;;;;;;;22.77;17.07;;;;;;;13.78;58.47;97780.47;5072973;28;20185;-70
2022/04/27 02:59:33;;;;;;;21.60;16.70;;;;;;;13.83;58.18;97785.25;5074215;28;20185;-71
2022/04/27 03:01:58;;;;;;;22.20;17.70;;;;;;;13.83;57.73;97772.09;5072796;28;20179;-70
2022/04/27 03:04:24;;;;;;;22.97;17.83;;;;;;;13.87;57.80;97775.22;5073368;28;20430;-70
2022/04/27 03:06:49;;;;;;;21.73;17.70;;;;;;;13.87;57.99;97780.50;5073141;28;20630;-70
2022/04/27 03:09:15;;;;;;;23.93;17.47;;;;;;;13.85;57.97;97783.31;5072950;28;20202;-70
2022/04/27 03:11:40;;;;;;;21.03;17.00;;;;;;;13.88;57.80;97784.78;5072998;28;20236;-69
2022/04/27 03:14:06;;;;;;;22.70;17.10;;;;;;;13.83;58.18;97791.34;5072673;28;20265;-69
2022/04/27 03:16:31;;;;;;;21.87;17.73;;;;;;;13.85;58.06;97780.66;5071564;28;20261;-69
2022/04/27 03:18:57;;;;;;;21.13;16.30;;;;;;;13.85;58.00;97780.66;5071645;28;20278;-70
2022/04/27 03:21:22;;;;;;;22.70;17.50;;;;;;;13.89;57.83;97789.88;5070938;28;20182;-68
2022/04/27 03:23:47;;;;;;;19.43;16.20;;;;;;;13.85;58.06;97785.94;5079881;28;20179;-71
2022/04/27 03:26:13;;;;;;;22.90;17.50;;;;;;;13.80;58.69;97785.56;5071855;28;20292;-70
2022/04/27 03:28:38;;;;;;;20.93;16.77;;;;;;;13.85;58.11;97785.09;5071909;28;20213;-70
2022/04/27 03:31:04;;;;;;;20.23;16.67;;;;;;;13.83;58.33;97790.53;5092723;28;20254;-70
2022/04/27 03:33:29;;;;;;;19.67;15.77;;;;;;;13.86;58.55;97794.66;5069412;28;20175;-70
2022/04/27 03:35:55;;;;;;;21.93;15.60;;;;;;;13.86;58.22;97792.00;5079040;28;20262;-70
2022/04/27 03:38:20;;;;;;;18.00;14.87;;;;;;;13.90;57.81;97788.91;5057007;28;20202;-70
2022/04/27 03:40:46;;;;;;;17.97;15.93;;;;;;;13.79;57.56;97797.09;5053910;28;20206;-70
2022/04/27 03:43:13;;;;;;;19.10;15.43;;;;;;;13.68;58.92;97800.81;5061496;28;20489;-70
2022/04/27 03:45:38;;;;;;;20.03;15.30;;;;;;;13.76;58.27;97802.66;5072810;28;20460;-71
2022/04/27 03:48:04;;;;;;;17.23;13.73;;;;;;;13.78;58.76;97801.53;5072217;28;20475;-71
2022/04/27 03:50:30;;;;;;;16.57;14.10;;;;;;;13.66;58.61;97803.63;5092333;28;20212;-72
2022/04/27 03:52:55;;;;;;;18.60;14.87;;;;;;;13.69;58.59;97805.09;5067238;28;20669;-72
2022/04/27 03:55:20;;;;;;;21.63;15.50;;;;;;;13.70;58.62;97804.13;5067005;28;20185;-72
2022/04/27 03:57:46;;;;;;;19.07;15.23;;;;;;;13.66;59.01;97811.53;5072426;28;20199;-70
2022/04/27 04:00:12;;;;;;;17.93;14.23;;;;;;;13.69;59.37;97817.47;5079704;28;20796;-69
2022/04/27 04:02:37;;;;;;;18.57;14.63;;;;;;;13.65;58.82;97816.97;5071612;28;20267;-69
2022/04/27 04:05:07;;;;;;;19.43;15.60;;;;;;;13.62;58.85;97822.53;5088170;28;20496;-69
2022/04/27 04:07:33;;;;;;;18.53;14.60;;;;;;;13.73;58.70;97818.81;5088352;28;20565;-70
2022/04/27 04:09:59;;;;;;;17.90;14.83;;;;;;;13.78;58.30;97817.34;5063539;28;20432;-69
2022/04/27 04:12:24;;;;;;;16.90;14.50;;;;;;;13.80;58.40;97825.09;5071682;28;20937;-71
2022/04/27 04:14:50;;;;;;;18.90;15.60;;;;;;;13.77;58.33;97823.59;5071662;28;20179;-69
2022/04/27 04:17:16;;;;;;;25.10;15.10;;;;;;;13.70;59.11;97824.38;5066935;28;20262;-70
2022/04/27 04:19:41;;;;;;;18.90;14.87;;;;;;;13.70;59.13;97827.84;5079506;28;20512;-72
2022/04/27 04:22:08;;;;;;;17.53;14.13;;;;;;;13.74;58.51;97828.34;5071827;28;20190;-71
2022/04/27 04:24:33;;;;;;;18.90;14.00;;;;;;;13.73;58.88;97829.34;5070105;28;20190;-71
2022/04/27 04:29:43;;;;;;;20.47;15.80;;;;;;;13.78;58.51;97829.69;5069599;28;20194;-71
2022/04/27 04:32:09;;;;;;;221.30;103.13;;;;;;;13.65;58.79;97844.09;5068687;28;20429;-71
2022/04/27 04:34:34;;;;;;;73.07;41.27;;;;;;;13.52;59.26;97835.81;5071113;28;20604;-71
2022/04/27 04:37:01;;;;;;;32.90;23.60;;;;;;;13.59;59.43;97839.47;5070901;28;20277;-71
2022/04/27 04:39:26;;;;;;;20.93;15.43;;;;;;;13.55;59.22;97845.19;5068644;28;20233;-72
2022/04/27 04:41:52;;;;;;;20.53;14.50;;;;;;;13.51;59.41;97848.16;5071290;28;20429;-72
2022/04/27 04:44:17;;;;;;;21.07;14.63;;;;;;;13.65;58.80;97846.75;5071113;28;20267;-72
2022/04/27 04:46:43;;;;;;;18.53;14.87;;;;;;;13.65;58.79;97849.38;5065692;28;20759;-70
2022/04/27 04:49:08;;;;;;;20.20;15.50;;;;;;;13.73;58.96;97855.69;5066270;28;20213;-71
2022/04/27 04:51:34;;;;;;;18.70;14.63;;;;;;;13.67;59.05;97863.22;5071272;28;20186;-71
2022/04/27 04:53:59;;;;;;;19.00;15.50;;;;;;;13.67;59.11;97865.03;5070768;28;20182;-71
2022/04/27 04:56:25;;;;;;;20.23;15.80;;;;;;;13.73;59.16;97872.31;5064778;28;20425;-71
2022/04/27 04:58:50;;;;;;;21.07;14.73;;;;;;;13.78;59.10;97872.69;5071113;28;20213;-72
2022/04/27 05:01:16;;;;;;;17.80;14.97;;;;;;;13.77;59.50;97871.03;5072616;28;20542;-71
2022/04/27 05:03:41;;;;;;;18.30;14.63;;;;;;;13.83;59.20;97873.00;5072765;28;20179;-72
2022/04/27 05:06:07;;;;;;;22.60;15.37;;;;;;;13.81;59.14;97882.06;5065369;28;20279;-71
2022/04/27 05:08:32;;;;;;;17.70;13.93;;;;;;;13.82;59.67;97881.09;5064507;28;20423;-71
2022/04/27 05:10:58;;;;;;;17.90;14.70;;;;;;;13.80;59.49;97888.31;5070601;28;20657;-70
2022/04/27 05:13:23;;;;;;;16.93;14.77;;;;;;;13.82;59.68;97889.81;5069365;28;20201;-71
2022/04/27 05:15:49;;;;;;;18.87;15.27;;;;;;;13.79;59.80;97886.66;5070426;28;20611;-70
2022/04/27 05:18:17;;;;;;;19.97;16.83;;;;;;;13.80;59.81;97885.69;5072033;28;20209;-71
2022/04/27 05:20:43;;;;;;;24.63;21.00;;;;;;;13.79;59.40;97894.56;5073586;28;20184;-70
2022/04/27 05:23:08;;;;;;;22.77;17.77;;;;;;;13.72;60.38;97893.53;5066025;28;20424;-70
2022/04/27 05:25:34;;;;;;;18.10;15.17;;;;;;;13.83;60.28;97893.28;5070898;28;20764;-69
2022/04/27 05:28:02;;;;;;;22.10;14.23;;;;;;;13.83;59.86;97895.91;5070932;28;20271;-71
2022/04/27 05:33:12;;;;;;;19.17;14.30;;;;;;;13.80;60.01;97910.22;5069460;28;20996;-70
2022/04/27 05:35:41;;;;;;;19.10;14.63;;;;;;;13.83;59.60;97904.63;5070046;28;20432;-71
2022/04/27 05:38:08;;;;;;;18.97;15.20;;;;;;;13.80;59.60;97902.31;5063333;28;20284;-70
2022/04/27 05:40:34;;;;;;;20.47;15.63;;;;;;;13.79;59.69;97911.22;5066981;28;20982;-71
2022/04/27 05:43:00;;;;;;;19.73;16.10;;;;;;;13.77;60.34;97910.53;5070449;28;20455;-71
2022/04/27 05:45:26;;;;;;;20.17;15.10;;;;;;;13.87;60.09;97914.88;5070709;28;20797;-70
2022/04/27 05:47:51;;;;;;;18.53;15.17;;;;;;;13.86;60.00;97914.03;5070595;28;20536;-70
2022/04/27 05:50:17;;;;;;;18.23;14.67;;;;;;;13.87;59.67;97920.13;5070914;28;20723;-71
2022/04/27 05:52:50;;;;;;;18.77;14.33;;;;;;;13.95;59.69;97923.66;5073195;28;20182;-70
2022/04/27 05:55:15;;;;;;;17.87;13.70;;;;;;;13.97;59.39;97923.47;5076230;28;20185;-70
2022/04/27 05:57:41;;;;;;;17.37;13.70;;;;;;;14.04;59.71;97928.97;5066499;28;20444;-70
2022/04/27 06:00:07;;;;;;;18.00;14.40;;;;;;;13.98;59.92;97927.78;5076339;28;20205;-70
2022/04/27 06:02:33;;;;;;;18.20;14.60;;;;;;;14.10;59.67;97930.97;5074287;28;20676;-69
2022/04/27 06:04:58;;;;;;;18.33;14.30;;;;;;;14.10;59.84;97936.25;5075185;28;20185;-69
2022/04/27 06:07:25;;;;;;;18.40;13.87;;;;;;;14.18;59.32;97928.38;5073974;28;20420;-70
2022/04/27 06:09:50;;;;;;;19.00;13.97;;;;;;;14.23;59.23;97936.66;5074188;28;20553;-70
2022/04/27 06:12:15;;;;;;;18.20;14.03;;;;;;;14.20;59.40;97936.94;5074665;28;20477;-70
2022/04/27 06:14:41;;;;;;;20.60;15.90;;;;;;;14.20;59.24;97939.59;5066001;28;20205;-70
2022/04/27 06:17:07;;;;;;;15.80;13.70;;;;;;;14.22;59.34;97942.91;5074494;28;20202;-70
2022/04/27 06:19:33;;;;;;;19.03;14.97;;;;;;;14.22;58.99;97945.53;5082145;28;20289;-70
2022/04/27 06:21:58;;;;;;;15.90;13.70;;;;;;;14.28;59.38;97942.25;5080179;28;20872;-70
2022/04/27 06:24:24;;;;;;;19.20;14.80;;;;;;;14.29;59.27;97945.72;5077746;28;20205;-70
2022/04/27 06:26:50;;;;;;;19.90;15.23;;;;;;;14.33;58.71;97951.50;5080079;28;20198;-71
2022/04/27 06:29:15;;;;;;;20.50;15.20;;;;;;;14.31;58.90;97945.56;5070948;28;20997;-69
2022/04/27 06:31:41;;;;;;;20.27;15.47;;;;;;;14.33;59.06;97956.78;5073710;28;20179;-70
2022/04/27 06:34:06;;;;;;;21.07;16.73;;;;;;;14.34;58.77;97955.81;5081769;28;20185;-69
2022/04/27 06:36:32;;;;;;;18.43;15.27;;;;;;;14.32;58.83;97949.84;5083140;28;20268;-69
2022/04/27 06:38:57;;;;;;;17.53;15.63;;;;;;;14.30;58.96;97963.22;5074598;28;20198;-70
2022/04/27 06:41:23;;;;;;;18.87;15.90;;;;;;;14.28;58.27;97959.91;5066317;28;20194;-69
2022/04/27 06:43:48;;;;;;;21.20;16.20;;;;;;;14.22;58.99;97965.78;5073665;28;20201;-70
2022/04/27 06:46:14;;;;;;;20.13;16.70;;;;;;;14.14;58.78;97966.56;5073871;28;20198;-70
2022/04/27 06:48:39;;;;;;;19.70;15.90;;;;;;;14.15;59.12;97965.59;5074056;28;20665;-70
2022/04/27 06:51:05;;;;;;;19.90;15.40;;;;;;;14.16;59.19;97977.78;5074091;28;20716;-70
2022/04/27 06:53:31;;;;;;;19.93;15.83;;;;;;;14.21;58.96;97975.50;5073240;28;20182;-71
2022/04/27 06:55:56;;;;;;;19.03;16.20;;;;;;;14.22;58.66;97974.53;5074059;28;20515;-71
2022/04/27 06:58:21;;;;;;;21.53;16.37;;;;;;;14.25;58.71;97982.09;5072376;28;20198;-69
2022/04/27 07:00:47;;;;;;;20.37;15.40;;;;;;;14.32;58.56;97992.84;5075741;28;20202;-68
2022/04/27 07:03:12;;;;;;;25.30;16.10;;;;;;;14.35;58.51;97997.00;5072743;28;20212;-71
2022/04/27 07:05:38;;;;;;;19.53;16.80;;;;;;;14.33;58.63;97994.50;5080731;28;20238;-69
2022/04/27 07:08:04;;;;;;;20.83;16.10;;;;;;;14.35;58.69;98005.75;5072732;28;20206;-69
2022/04/27 07:10:36;;;;;;;19.83;16.30;;;;;;;14.48;59.05;97994.78;5073265;28;20182;-71
2022/04/27 07:13:03;;;;;;;20.90;16.63;;;;;;;14.67;58.78;98001.63;5072806;28;20801;-70
2022/04/27 07:15:28;;;;;;;19.83;15.40;;;;;;;14.73;58.16;98011.53;5072582;28;20423;-69
2022/04/27 07:17:54;;;;;;;18.13;15.23;;;;;;;14.71;57.47;98005.59;5079658;28;20447;-71
2022/04/27 07:20:19;;;;;;;23.20;16.00;;;;;;;14.73;57.35;98011.53;5076215;28;20182;-69
2022/04/27 07:22:45;;;;;;;16.43;14.07;;;;;;;14.72;57.68;98011.72;5082016;28;20236;-70
2022/04/27 07:25:10;;;;;;;16.27;13.87;;;;;;;14.67;57.70;98011.31;5074054;28;20202;-71
2022/04/27 07:27:37;;;;;;;19.43;15.30;;;;;;;14.75;57.69;98014.00;5080121;28;20267;-70
2022/04/27 07:30:03;;;;;;;15.63;13.60;;;;;;;14.74;56.97;98017.66;5074448;28;20205;-71
2022/04/27 07:32:28;;;;;;;16.67;14.00;;;;;;;14.73;57.26;98021.28;5073753;28;20919;-71
2022/04/27 07:34:54;;;;;;;16.73;13.77;;;;;;;14.68;57.13;98016.47;5072790;28;20243;-71
2022/04/27 07:37:19;;;;;;;19.97;14.87;;;;;;;14.71;57.27;98020.63;5073038;28;20199;-71
2022/04/27 07:39:45;;;;;;;17.20;14.67;;;;;;;14.72;57.03;98028.34;5069380;28;20525;-71
2022/04/27 07:42:10;;;;;;;20.53;14.10;;;;;;;14.73;56.68;98026.56;5061739;28;20178;-70
2022/04/27 07:44:36;;;;;;;14.97;13.17;;;;;;;14.70;56.85;98026.88;5067569;28;20217;-71
2022/04/27 07:47:01;;;;;;;17.83;14.53;;;;;;;14.57;57.40;98030.75;5072178;28;20680;-72
2022/04/27 07:49:27;;;;;;;16.67;13.07;;;;;;;14.61;57.42;98027.78;5073999;28;20206;-71
2022/04/27 07:51:53;;;;;;;15.03;13.20;;;;;;;14.67;57.30;98032.44;5072208;28;20194;-70
2022/04/27 07:54:18;;;;;;;13.87;12.10;;;;;;;14.68;57.32;98031.47;5072809;28;20709;-69
2022/04/27 07:56:44;;;;;;;14.70;13.10;;;;;;;14.77;57.71;98033.16;5077096;28;20424;-69
2022/04/27 07:59:09;;;;;;;15.43;12.23;;;;;;;14.84;57.46;98044.75;5081677;28;20950;-70
2022/04/27 08:01:35;;;;;;;18.00;13.43;;;;;;;14.89;57.45;98042.44;5073312;28;20193;-70
2022/04/27 08:04:00;;;;;;;18.40;14.97;;;;;;;14.90;57.32;98049.38;5072523;28;20590;-70
2022/04/27 08:06:26;;;;;;;13.83;12.03;;;;;;;14.90;56.55;98043.28;5080673;28;20202;-71
2022/04/27 08:08:51;;;;;;;15.67;12.43;;;;;;;15.00;57.03;98051.88;5072602;28;20293;-70
2022/04/27 08:11:17;;;;;;;13.03;11.70;;;;;;;15.11;56.94;98048.13;5071930;28;20182;-68
2022/04/27 08:13:43;;;;;;;14.80;12.97;;;;;;;15.30;56.05;98051.47;5071826;28;20178;-69
2022/04/27 08:16:10;;;;;;;15.07;12.57;;;;;;;15.47;56.25;98050.53;5071627;28;20182;-70
2022/04/27 08:18:36;;;;;;;16.60;12.97;;;;;;;15.55;55.31;98059.44;5080215;28;20455;-70
2022/04/27 08:21:14;;;;;;;13.57;12.13;;;;;;;15.57;55.02;98044.25;5071355;28;20432;-70
2022/04/27 08:23:42;;;;;;;15.60;12.20;;;;;;;15.54;54.72;98060.41;5071966;28;20428;-70
2022/04/27 08:26:08;;;;;;;14.30;11.80;;;;;;;15.57;54.19;98065.38;5072432;28;20441;-69
2022/04/27 08:28:34;;;;;;;15.60;12.57;;;;;;;15.49;54.19;98061.75;5072101;28;20453;-69
2022/04/27 08:31:00;;;;;;;16.00;11.43;;;;;;;15.47;54.18;98065.53;5092185;28;20427;-69
2022/04/27 08:33:26;;;;;;;16.43;11.97;;;;;;;15.37;53.89;98068.34;5065977;28;20429;-70
2022/04/27 08:35:54;;;;;;;16.40;11.33;;;;;;;15.38;54.29;98072.59;5090568;28;20656;-70
2022/04/27 08:38:19;;;;;;;14.33;11.40;;;;;;;15.40;54.31;98070.63;5073202;28;20444;-71
2022/04/27 08:40:45;;;;;;;13.07;11.40;;;;;;;15.40;54.59;98065.34;5070655;28;20777;-71
2022/04/27 08:43:12;;;;;;;13.53;10.93;;;;;;;15.45;53.79;98073.63;5064973;28;20253;-72
2022/04/27 08:45:41;;;;;;;12.73;10.20;;;;;;;15.52;53.90;98074.63;5070389;28;20486;-71
2022/04/27 08:48:07;;;;;;;13.43;11.00;;;;;;;15.62;53.37;98073.66;5087092;28;20451;-71
2022/04/27 08:50:32;;;;;;;13.57;11.23;;;;;;;15.63;52.67;98085.84;5072722;28;20417;-71
2022/04/27 08:52:58;;;;;;;17.23;11.67;;;;;;;15.63;52.44;98083.22;5071991;28;20450;-71
2022/04/27 08:55:27;;;;;;;11.63;9.73;;;;;;;15.77;51.61;98090.50;5082651;28;20178;-70
2022/04/27 08:57:53;;;;;;;13.60;10.07;;;;;;;15.94;51.62;98082.63;5067888;28;20198;-70
2022/04/27 09:00:19;;;;;;;11.93;9.83;;;;;;;16.13;51.00;98082.28;5067918;28;20949;-69
2022/04/27 09:02:46;;;;;;;11.43;9.33;;;;;;;16.56;51.54;98073.28;5071558;28;21017;-69
2022/04/27 09:05:19;;;;;;;12.07;9.90;;;;;;;16.76;50.32;98080.84;5075174;28;21251;-71
2022/04/27 09:07:50;;;;;;;11.60;9.67;;;;;;;16.93;49.61;98071.84;5063640;28;20987;-70
2022/04/27 09:10:19;;;;;;;13.63;9.27;;;;;;;16.84;46.17;98076.34;5036667;28;20464;-70
2022/04/27 09:12:49;;;;;;;13.20;9.93;;;;;;;16.70;46.46;98088.47;5064001;28;20451;-70
2022/04/27 09:15:17;;;;;;;10.97;9.23;;;;;;;16.71;46.51;98082.19;5070959;28;20417;-70
2022/04/27 09:23:40;;;;;;;13.00;9.80;;;;;;;16.82;48.36;98088.91;5079082;28;20443;-71
2022/04/27 09:26:18;;;;;;;12.07;9.40;;;;;;;16.77;47.49;98085.13;5081051;28;20443;-69
2022/04/27 09:28:48;;;;;;;11.80;10.30;;;;;;;16.83;48.11;98079.97;5082078;28;20503;-72
2022/04/27 09:31:33;;;;;;;9.23;8.27;;;;;;;16.82;47.15;98080.97;5076902;28;20424;-71
2022/04/27 09:33:59;;;;;;;10.40;8.83;;;;;;;16.58;46.06;98084.53;5081500;28;20616;-71
2022/04/27 09:36:24;;;;;;;14.77;8.13;;;;;;;16.64;46.60;98090.97;5090098;28;20435;-71
2022/04/27 09:38:50;;;;;;;8.87;7.53;;;;;;;16.56;45.40;98081.22;5081786;28;20448;-71
2022/04/27 09:41:42;;;;;;;8.93;7.90;;;;;;;16.78;46.37;98078.84;5073901;28;20190;-72
2022/04/27 09:44:10;;;;;;;12.83;8.20;;;;;;;16.68;46.55;98079.88;5079075;28;20427;-70
2022/04/27 09:46:40;;;;;;;8.60;7.70;;;;;;;16.64;46.55;98075.09;5061456;28;21069;-71
2022/04/27 09:49:12;;;;;;;13.83;8.00;;;;;;;16.77;46.26;98091.25;5081045;28;21116;-71
2022/04/27 09:51:47;;;;;;;9.73;8.37;;;;;;;16.83;46.64;98089.75;5055285;28;20519;-72
2022/04/27 09:54:18;;;;;;;14.43;9.10;;;;;;;16.86;46.41;98078.81;5081207;28;20456;-71
2022/04/27 09:56:48;;;;;;;10.40;8.30;;;;;;;16.92;47.03;98085.25;5066181;28;20789;-71
2022/04/27 09:59:15;;;;;;;8.70;7.80;;;;;;;16.98;47.24;98087.22;5075338;28;20985;-70
2022/04/27 10:01:40;;;;;;;11.57;6.60;;;;;;;16.93;46.34;98081.63;5077867;28;20423;-70
2022/04/27 10:04:06;;;;;;;9.00;7.40;;;;;;;17.00;46.46;98078.16;5078342;28;20814;-70
2022/04/27 10:06:34;;;;;;;7.93;6.57;;;;;;;17.07;46.65;98093.31;5079110;28;20194;-70
2022/04/27 10:09:03;;;;;;;9.77;6.87;;;;;;;17.12;46.08;98085.69;5080445;28;20448;-70
2022/04/27 10:11:31;;;;;;;7.60;5.50;;;;;;;17.04;45.76;98084.72;5070172;28;20532;-70
2022/04/27 10:13:56;;;;;;;6.90;5.70;;;;;;;17.06;45.77;98087.22;5074301;28;20436;-70
2022/04/27 10:16:23;;;;;;;5.63;5.13;;;;;;;17.06;44.84;98087.22;5073209;28;20795;-71
2022/04/27 10:18:50;;;;;;;6.87;6.10;;;;;;;17.15;45.99;98090.63;5075698;28;20714;-71
2022/04/27 10:21:39;;;;;;;5.57;4.63;;;;;;;17.29;45.32;98103.16;5074671;28;20477;-70
2022/04/27 10:24:06;;;;;;;7.90;5.30;;;;;;;17.35;44.69;98099.81;5068260;28;20412;-70
2022/04/27 10:26:32;;;;;;;5.80;4.83;;;;;;;17.22;44.74;98091.59;5082515;28;20451;-70
2022/04/27 10:29:00;;;;;;;4.97;4.20;;;;;;;17.30;43.89;98091.56;5069963;28;20532;-71
2022/04/27 10:31:46;;;;;;;4.90;4.40;;;;;;;17.32;44.14;98091.41;5069138;28;20174;-71
2022/04/27 10:34:18;;;;;;;6.57;5.40;;;;;;;17.35;44.37;98091.88;5067179;28;20526;-70
2022/04/27 10:36:50;;;;;;;7.07;5.20;;;;;;;17.36;43.88;98090.03;5068040;28;20425;-71
2022/04/27 10:39:17;;;;;;;5.63;5.00;;;;;;;17.35;44.01;98086.56;5062045;28;20447;-71
2022/04/27 10:42:16;;;;;;;5.33;4.83;;;;;;;17.31;43.52;98092.41;5073087;28;21004;-72
2022/04/27 10:44:48;;;;;;;8.10;5.10;;;;;;;17.29;44.45;98097.84;5066150;28;20562;-70
2022/04/27 10:47:21;;;;;;;6.67;5.00;;;;;;;17.39;44.54;98088.88;5086678;28;20455;-70
2022/04/27 10:50:28;;;;;;;8.00;4.40;;;;;;;17.43;44.62;98092.81;5080341;28;20515;-71
2022/04/27 10:52:57;;;;;;;5.00;4.50;;;;;;;17.29;43.93;98097.84;5079757;28;20418;-70
2022/04/27 10:55:35;;;;;;;6.67;5.80;;;;;;;17.31;43.29;98092.41;5092589;28;20423;-70
2022/04/27 10:58:14;;;;;;;6.07;5.47;;;;;;;17.32;43.19;98102.00;5073416;28;20444;-69
2022/04/27 11:01:02;;;;;;;5.90;4.63;;;;;;;17.31;43.87;98105.63;5084361;28;20419;-71
2022/04/27 11:03:32;;;;;;;5.87;5.30;;;;;;;17.29;44.19;98105.81;5082954;28;20424;-71
2022/04/27 11:06:03;;;;;;;5.43;4.93;;;;;;;17.17;43.71;98105.38;5071998;28;20455;-70
2022/04/27 11:08:56;;;;;;;5.30;4.80;;;;;;;17.15;43.77;98103.88;5073003;28;20440;-70
2022/04/27 11:11:26;;;;;;;4.83;4.40;;;;;;;17.20;44.63;98110.31;5067821;28;20425;-70
2022/04/27 11:13:59;;;;;;;4.80;4.10;;;;;;;17.26;43.76;98116.75;5072999;28;20798;-70
2022/04/27 11:16:24;;;;;;;4.00;3.63;;;;;;;17.25;43.72;98109.81;5073231;28;20417;-70
2022/04/27 11:18:59;;;;;;;4.70;4.30;;;;;;;17.25;43.86;98112.47;5071109;28;20792;-69
2022/04/27 11:21:29;;;;;;;4.83;4.13;;;;;;;17.25;44.43;98114.28;5071652;28;20657;-70
2022/04/27 11:23:58;;;;;;;4.73;4.00;;;;;;;17.32;43.99;98107.28;5072658;28;20428;-70
2022/04/27 11:26:24;;;;;;;4.60;4.20;;;;;;;17.33;43.65;98109.75;5072891;28;20959;-70
2022/04/27 11:28:52;;;;;;;5.53;5.00;;;;;;;17.22;44.09;98112.78;5071829;28;20453;-70
2022/04/27 11:31:18;;;;;;;5.27;4.77;;;;;;;17.11;43.36;98107.88;5071779;28;20206;-69
2022/04/27 11:33:44;;;;;;;5.47;4.97;;;;;;;17.26;43.43;98114.13;5073360;28;20912;-70
2022/04/27 11:36:21;;;;;;;6.20;4.73;;;;;;;17.44;44.14;98115.66;5071123;28;20182;-70
2022/04/27 11:38:48;;;;;;;5.27;4.57;;;;;;;17.74;43.93;98102.56;5064393;28;20451;-70